Time;durP1;ratioP1;P1;durP2;ratioP2;P2;SDS_P1;SDS_P2;PMS_P1;PMS_P2;Temp;Humidity;BMP_temperature;BMP_pressure;BME280_temperature;BME280_humidity;BME280_pressure;Samples;Min_cycle;Max_cycle;Signal;HPM_P1;HPM_P2
2021/11/24 00:00:45;;;;;;;1.40;1.10;;;-1.10;98.00;;;;;;5012016;28;20205;-63
2021/11/24 00:03:13;;;;;;;2.10;1.98;;;-1.10;98.00;;;;;;5012096;28;20264;-62
2021/11/24 00:05:40;;;;;;;3.17;2.50;;;-1.30;98.00;;;;;;5012060;28;20197;-62
2021/11/24 00:08:07;;;;;;;1.20;1.00;;;-1.40;98.00;;;;;;5012295;28;20204;-62
2021/11/24 00:10:35;;;;;;;3.35;1.63;;;-1.30;98.00;;;;;;5011980;28;20271;-63
2021/11/24 00:13:06;;;;;;;1.70;1.60;;;-1.10;98.00;;;;;;5011849;28;20791;-62
2021/11/24 00:15:34;;;;;;;4.10;2.27;;;-1.10;98.00;;;;;;5010622;28;20483;-63
2021/11/24 00:18:05;;;;;;;3.35;1.98;;;-1.20;98.00;;;;;;5011789;28;20989;-63
2021/11/24 00:20:33;;;;;;;1.67;1.67;;;-1.20;98.00;;;;;;5011799;28;20292;-63
2021/11/24 00:23:01;;;;;;;1.50;1.50;;;-1.30;98.00;;;;;;5011971;28;20594;-63
2021/11/24 00:25:29;;;;;;;2.85;2.17;;;-1.30;98.00;;;;;;5010670;28;20852;-62
2021/11/24 00:27:56;;;;;;;2.17;1.50;;;-1.30;98.00;;;;;;5012060;28;20202;-63
2021/11/24 00:30:24;;;;;;;1.40;1.30;;;-1.30;98.00;;;;;;5011647;28;20465;-63
2021/11/24 00:32:51;;;;;;;1.40;1.38;;;-1.40;98.00;;;;;;5012049;28;20259;-63
2021/11/24 00:35:19;;;;;;;3.03;1.93;;;-1.40;98.00;;;;;;5011726;28;20321;-63
2021/11/24 00:37:46;;;;;;;1.50;1.38;;;-1.30;98.00;;;;;;5011694;28;20447;-63
2021/11/24 00:40:13;;;;;;;2.58;2.00;;;-1.30;98.00;;;;;;5011803;28;20256;-63
2021/11/24 00:42:41;;;;;;;1.88;1.63;;;-1.10;98.00;;;;;;5011900;28;20209;-62
2021/11/24 00:45:08;;;;;;;1.73;1.20;;;-1.20;98.00;;;;;;5011626;28;20544;-62
2021/11/24 00:47:35;;;;;;;1.70;1.37;;;-1.10;98.00;;;;;;5011872;28;20264;-62
2021/11/24 00:50:02;;;;;;;1.40;1.20;;;-1.30;98.00;;;;;;5011816;28;20453;-62
2021/11/24 00:52:31;;;;;;;1.80;1.75;;;-1.30;98.00;;;;;;5012153;28;20687;-63
2021/11/24 00:54:58;;;;;;;2.15;2.00;;;-1.50;98.00;;;;;;5011508;28;20625;-63
2021/11/24 00:57:26;;;;;;;1.53;1.33;;;-1.40;98.00;;;;;;5011846;28;20282;-62
2021/11/24 00:59:53;;;;;;;4.70;2.17;;;-1.40;98.00;;;;;;5011450;28;20451;-63
2021/11/24 01:02:20;;;;;;;3.20;1.80;;;-1.50;98.00;;;;;;5013850;28;20622;-62
2021/11/24 01:04:47;;;;;;;1.20;1.10;;;-1.50;98.00;;;;;;5015248;28;20255;-62
2021/11/24 01:07:15;;;;;;;1.55;1.45;;;-1.60;98.00;;;;;;5015151;28;20212;-63
2021/11/24 01:09:43;;;;;;;1.60;1.60;;;-1.70;98.00;;;;;;5014949;28;20249;-63
2021/11/24 01:12:10;;;;;;;1.20;1.00;;;-1.80;98.00;;;;;;5015157;28;20256;-62
2021/11/24 01:14:37;;;;;;;1.55;1.52;;;-1.80;98.00;;;;;;5014722;28;20255;-63
2021/11/24 01:17:05;;;;;;;1.30;1.30;;;-1.70;98.00;;;;;;5014804;28;20286;-62
2021/11/24 01:19:32;;;;;;;2.42;2.13;;;-1.60;98.00;;;;;;5014853;28;20737;-63
2021/11/24 01:22:00;;;;;;;1.17;1.00;;;-1.60;98.00;;;;;;5014915;28;20209;-62
2021/11/24 01:24:27;;;;;;;1.80;1.70;;;-1.60;98.00;;;;;;5013785;28;20591;-62
2021/11/24 01:26:58;;;;;;;1.20;1.00;;;-1.50;98.00;;;;;;5014760;28;20213;-62
2021/11/24 01:29:25;;;;;;;1.98;1.67;;;-1.50;98.00;;;;;;5014892;28;20205;-62
2021/11/24 01:31:52;;;;;;;3.60;1.58;;;-1.50;98.00;;;;;;5014598;28;20208;-62
2021/11/24 01:34:19;;;;;;;1.20;1.10;;;-1.50;98.00;;;;;;5014796;28;20300;-62
2021/11/24 01:36:46;;;;;;;1.20;1.00;;;-1.60;98.00;;;;;;5014526;28;20646;-62
2021/11/24 01:39:13;;;;;;;1.20;1.10;;;-1.60;98.00;;;;;;5013222;28;20259;-63
2021/11/24 01:41:40;;;;;;;1.70;1.65;;;-1.60;98.00;;;;;;5014627;28;20253;-62
2021/11/24 01:44:19;;;;;;;1.57;1.40;;;-1.60;98.00;;;;;;5014469;28;20575;-63
2021/11/24 01:46:52;;;;;;;2.67;1.55;;;-1.70;98.00;;;;;;5014458;28;21353;-62
2021/11/24 01:49:20;;;;;;;5.68;1.35;;;-1.70;98.00;;;;;;5014478;28;20295;-62
2021/11/24 01:51:47;;;;;;;2.90;1.77;;;-1.70;98.00;;;;;;5013177;28;20236;-63
2021/11/24 01:54:15;;;;;;;2.17;1.60;;;-1.60;98.00;;;;;;5014160;28;20263;-62
2021/11/24 01:56:43;;;;;;;1.40;1.15;;;-1.60;98.00;;;;;;5014257;28;20226;-63
2021/11/24 01:59:25;;;;;;;9.05;3.25;;;-1.60;98.00;;;;;;5014303;28;20216;-62
2021/11/24 02:01:52;;;;;;;1.20;1.10;;;-1.80;98.00;;;;;;5014281;28;20239;-62
2021/11/24 02:04:20;;;;;;;1.92;1.65;;;-1.80;98.00;;;;;;5014327;28;20213;-62
2021/11/24 02:06:49;;;;;;;2.20;1.30;;;-1.70;98.00;;;;;;5014060;28;20267;-62
2021/11/24 02:09:18;;;;;;;1.65;1.50;;;-1.70;98.00;;;;;;5012988;28;20217;-62
2021/11/24 02:11:46;;;;;;;1.88;1.77;;;-1.70;98.00;;;;;;5013372;28;20276;-62
2021/11/24 02:14:17;;;;;;;1.20;1.00;;;-1.70;98.00;;;;;;5013641;28;20259;-62
2021/11/24 02:16:48;;;;;;;1.40;1.33;;;-1.70;98.00;;;;;;5014260;28;20617;-63
2021/11/24 02:19:16;;;;;;;1.20;1.20;;;-1.60;98.00;;;;;;5012781;28;20660;-63
2021/11/24 02:21:47;;;;;;;3.70;2.05;;;-1.50;98.00;;;;;;5012414;28;20614;-63
2021/11/24 02:24:15;;;;;;;2.45;1.75;;;-1.40;98.00;;;;;;5013772;28;20283;-62
2021/11/24 02:26:43;;;;;;;1.20;1.00;;;-1.30;98.00;;;;;;5013635;28;20267;-62
2021/11/24 02:29:10;;;;;;;1.50;1.40;;;-1.30;98.00;;;;;;5013444;28;20201;-62
2021/11/24 02:31:38;;;;;;;1.20;1.20;;;-1.50;98.00;;;;;;5013538;28;20260;-63
2021/11/24 02:34:05;;;;;;;1.10;1.00;;;-1.60;98.00;;;;;;5013624;28;20208;-62
2021/11/24 02:36:33;;;;;;;2.55;2.17;;;-1.60;98.00;;;;;;5013247;28;20289;-63
2021/11/24 02:39:03;;;;;;;1.20;1.05;;;-1.70;98.00;;;;;;5013341;28;20559;-62
2021/11/24 02:41:30;;;;;;;1.30;1.17;;;-1.70;98.00;;;;;;5013412;28;20303;-62
2021/11/24 02:44:14;;;;;;;2.90;2.00;;;-1.80;98.00;;;;;;5013237;28;20279;-62
2021/11/24 02:46:41;;;;;;;1.35;1.33;;;-1.70;98.00;;;;;;5013119;28;21003;-63
2021/11/24 02:49:08;;;;;;;2.65;1.52;;;-1.80;98.00;;;;;;5013345;28;20268;-62
2021/11/24 02:51:35;;;;;;;1.20;1.00;;;-1.80;98.00;;;;;;5013337;28;20541;-63
2021/11/24 02:54:03;;;;;;;1.20;1.20;;;-1.90;98.00;;;;;;5012978;28;20213;-62
2021/11/24 02:56:30;;;;;;;2.45;2.00;;;-1.80;98.00;;;;;;5013153;28;20766;-62
2021/11/24 02:58:57;;;;;;;1.20;1.10;;;-1.90;98.00;;;;;;5013106;28;20218;-62
2021/11/24 03:01:25;;;;;;;1.10;0.90;;;-1.90;98.00;;;;;;5013033;28;20214;-62
2021/11/24 03:03:52;;;;;;;1.23;1.15;;;-2.10;98.00;;;;;;5013035;28;20201;-62
2021/11/24 03:06:20;;;;;;;1.55;1.40;;;-2.20;98.00;;;;;;5013331;28;20212;-62
2021/11/24 03:08:47;;;;;;;1.70;1.10;;;-2.00;98.00;;;;;;5011788;28;20213;-62
2021/11/24 03:11:15;;;;;;;1.40;1.20;;;-1.90;98.00;;;;;;5012732;28;20208;-63
2021/11/24 03:13:42;;;;;;;1.10;1.00;;;-2.00;98.00;;;;;;5012961;28;20625;-62
2021/11/24 03:16:09;;;;;;;1.77;1.40;;;-2.10;98.00;;;;;;5011747;28;20259;-63
2021/11/24 03:18:36;;;;;;;1.30;1.10;;;-2.10;98.00;;;;;;4995851;28;20784;-62
2021/11/24 03:21:04;;;;;;;1.38;1.15;;;-2.10;98.00;;;;;;5012907;28;20216;-62
2021/11/24 03:23:31;;;;;;;1.52;1.20;;;-2.10;98.00;;;;;;5012656;28;20205;-62
2021/11/24 03:25:59;;;;;;;1.85;1.63;;;-2.10;98.00;;;;;;5012572;28;20259;-62
2021/11/24 03:28:27;;;;;;;2.47;1.25;;;-2.00;98.00;;;;;;5012948;28;20201;-63
2021/11/24 03:30:55;;;;;;;1.20;1.10;;;-1.90;98.00;;;;;;5012778;28;20867;-62
2021/11/24 03:33:22;;;;;;;9.75;2.15;;;-2.00;98.00;;;;;;5012797;28;20206;-62
2021/11/24 03:35:49;;;;;;;1.73;1.10;;;-2.00;98.00;;;;;;5012480;28;20221;-62
2021/11/24 03:38:17;;;;;;;1.20;1.10;;;-1.90;98.00;;;;;;5012506;28;20332;-62
2021/11/24 03:40:44;;;;;;;1.48;1.13;;;-2.10;98.00;;;;;;5012458;28;20252;-62
2021/11/24 03:43:11;;;;;;;1.20;1.10;;;-2.20;98.00;;;;;;5012227;28;20271;-62
2021/11/24 03:45:40;;;;;;;2.03;1.65;;;-2.20;98.00;;;;;;5012258;28;20200;-62
2021/11/24 03:48:08;;;;;;;2.00;1.92;;;-2.30;98.00;;;;;;5012327;28;20656;-62
2021/11/24 03:50:36;;;;;;;2.00;1.80;;;-2.40;98.00;;;;;;5011979;28;20295;-62
2021/11/24 03:53:04;;;;;;;1.65;1.52;;;-2.50;98.00;;;;;;5012167;28;20262;-62
2021/11/24 03:55:31;;;;;;;1.20;1.10;;;-2.50;98.00;;;;;;5012072;28;20209;-63
2021/11/24 03:57:59;;;;;;;2.05;1.73;;;-2.40;98.00;;;;;;5011843;28;20233;-62
2021/11/24 04:00:28;;;;;;;1.20;1.00;;;-2.30;98.00;;;;;;5011903;28;20213;-62
2021/11/24 04:02:58;;;;;;;2.00;1.15;;;-2.10;98.00;;;;;;5011995;28;20287;-62
2021/11/24 04:05:25;;;;;;;2.22;1.45;;;-2.20;98.00;;;;;;5012436;28;20671;-62
2021/11/24 04:07:52;;;;;;;1.30;1.30;;;-2.30;98.00;;;;;;5011931;28;20258;-62
2021/11/24 04:10:19;;;;;;;1.33;1.13;;;-2.30;98.00;;;;;;5011927;28;20208;-62
2021/11/24 04:12:47;;;;;;;5.72;1.85;;;-2.20;98.00;;;;;;5012320;28;20607;-62
2021/11/24 04:15:16;;;;;;;1.60;1.48;;;-2.30;98.00;;;;;;5011996;28;20283;-62
2021/11/24 04:17:44;;;;;;;2.95;1.67;;;-2.20;98.00;;;;;;5011751;28;20286;-62
2021/11/24 04:20:14;;;;;;;1.50;1.40;;;-2.20;98.00;;;;;;5011812;28;20279;-62
2021/11/24 04:22:42;;;;;;;1.60;1.52;;;-2.20;98.00;;;;;;5012020;28;20212;-62
2021/11/24 04:25:11;;;;;;;6.57;1.77;;;-2.30;98.00;;;;;;5012109;28;20262;-62
2021/11/24 04:27:39;;;;;;;1.75;1.70;;;-2.30;98.00;;;;;;5012073;28;20655;-62
2021/11/24 04:30:07;;;;;;;1.50;1.35;;;-2.20;98.00;;;;;;5011842;28;20228;-62
2021/11/24 04:32:35;;;;;;;2.10;1.98;;;-2.20;98.00;;;;;;5011919;28;20217;-62
2021/11/24 04:35:02;;;;;;;2.10;1.80;;;-2.10;98.00;;;;;;5010496;28;20254;-62
2021/11/24 04:37:31;;;;;;;1.95;1.50;;;-2.10;98.00;;;;;;5014753;28;20229;-62
2021/11/24 04:39:58;;;;;;;1.60;1.33;;;-2.20;98.00;;;;;;5015752;28;20674;-62
2021/11/24 04:42:25;;;;;;;1.25;1.20;;;-2.20;98.00;;;;;;5015792;28;20255;-62
2021/11/24 04:44:53;;;;;;;1.63;1.58;;;-2.30;98.00;;;;;;5015687;28;20237;-62
2021/11/24 04:47:21;;;;;;;2.83;2.08;;;-2.20;98.00;;;;;;5015778;28;20724;-62
2021/11/24 04:49:48;;;;;;;1.45;1.45;;;-2.20;98.00;;;;;;5015679;28;20208;-62
2021/11/24 04:52:16;;;;;;;1.20;1.00;;;-2.20;98.00;;;;;;5015872;28;20205;-62
2021/11/24 04:54:45;;;;;;;1.58;1.50;;;-2.10;98.00;;;;;;5015787;28;20216;-62
2021/11/24 04:57:19;;;;;;;1.50;1.42;;;-2.10;98.00;;;;;;5015656;28;20279;-62
2021/11/24 04:59:46;;;;;;;2.40;1.63;;;-2.10;98.00;;;;;;5014133;28;20639;-62
2021/11/24 05:02:13;;;;;;;1.20;1.20;;;-2.20;98.00;;;;;;5015182;28;20266;-62
2021/11/24 05:04:41;;;;;;;1.48;1.13;;;-2.10;98.00;;;;;;5015168;28;20205;-62
2021/11/24 05:07:08;;;;;;;4.30;1.45;;;-2.00;98.00;;;;;;5015350;28;20202;-63
2021/11/24 05:09:35;;;;;;;2.50;2.35;;;-2.00;98.00;;;;;;5015080;28;20267;-62
2021/11/24 05:12:04;;;;;;;1.20;1.20;;;-2.00;98.00;;;;;;5014996;28;20259;-62
2021/11/24 05:14:34;;;;;;;1.77;1.60;;;-1.90;98.00;;;;;;5015203;28;20225;-62
2021/11/24 05:17:04;;;;;;;1.20;1.00;;;-1.80;98.00;;;;;;5015097;28;20311;-62
2021/11/24 05:19:34;;;;;;;2.75;1.48;;;-1.60;98.00;;;;;;5014732;28;20210;-62
2021/11/24 05:22:01;;;;;;;2.03;1.38;;;-1.40;98.00;;;;;;5014752;28;20560;-62
2021/11/24 05:24:32;;;;;;;1.40;1.00;;;-1.30;98.00;;;;;;5014978;28;20548;-62
2021/11/24 05:26:59;;;;;;;1.20;1.20;;;-1.20;98.00;;;;;;5014815;28;20208;-62
2021/11/24 05:29:31;;;;;;;1.10;0.90;;;-1.00;98.00;;;;;;5014592;28;20257;-62
2021/11/24 05:31:58;;;;;;;2.75;1.27;;;-0.80;98.00;;;;;;5014580;28;20287;-62
2021/11/24 05:34:25;;;;;;;1.50;1.35;;;-0.70;98.00;;;;;;5014615;28;20255;-62
2021/11/24 05:36:52;;;;;;;1.30;1.27;;;-0.80;98.00;;;;;;5014540;28;20229;-62
2021/11/24 05:39:21;;;;;;;1.40;1.30;;;-0.80;98.00;;;;;;5014416;28;20217;-62
2021/11/24 05:41:48;;;;;;;1.75;1.65;;;-0.90;98.00;;;;;;5014673;28;20847;-62
2021/11/24 05:44:21;;;;;;;1.25;1.23;;;-0.90;98.00;;;;;;5014443;28;20205;-62
2021/11/24 05:46:53;;;;;;;1.20;1.10;;;-1.00;98.00;;;;;;5014420;28;20201;-62
2021/11/24 05:49:21;;;;;;;1.10;1.00;;;-0.90;98.00;;;;;;5014331;28;20279;-62
2021/11/24 05:51:49;;;;;;;1.50;1.40;;;-0.80;98.00;;;;;;5014462;28;20256;-62
2021/11/24 05:54:16;;;;;;;2.20;1.58;;;-0.70;98.00;;;;;;5014278;28;20651;-62
2021/11/24 05:56:45;;;;;;;2.05;1.67;;;-0.60;98.00;;;;;;5014332;28;20229;-62
2021/11/24 05:59:13;;;;;;;1.10;1.00;;;-0.50;98.00;;;;;;5014159;28;20214;-62
2021/11/24 06:01:40;;;;;;;2.58;1.52;;;-0.50;98.00;;;;;;5014268;28;20623;-62
2021/11/24 06:04:09;;;;;;;1.30;1.20;;;-0.40;98.00;;;;;;5013923;28;20203;-62
2021/11/24 06:06:37;;;;;;;1.50;1.40;;;-0.30;98.00;;;;;;5014293;28;20201;-62
2021/11/24 06:09:05;;;;;;;1.73;1.63;;;-0.30;98.00;;;;;;5014177;28;20260;-62
2021/11/24 06:11:32;;;;;;;2.13;1.45;;;-0.30;98.00;;;;;;5014436;28;20213;-62
2021/11/24 06:14:00;;;;;;;1.10;1.10;;;-0.20;98.00;;;;;;5014152;28;20263;-62
2021/11/24 06:16:27;;;;;;;1.40;1.20;;;-0.20;98.00;;;;;;5013134;28;20206;-63
2021/11/24 06:18:54;;;;;;;1.92;1.55;;;-0.20;98.00;;;;;;5013930;28;20209;-62
2021/11/24 06:21:23;;;;;;;1.10;1.00;;;-0.20;98.00;;;;;;5014018;28;20206;-63
2021/11/24 06:23:51;;;;;;;1.10;1.10;;;-0.10;98.00;;;;;;5013697;28;20210;-62
2021/11/24 06:26:20;;;;;;;1.10;1.00;;;0.00;98.00;;;;;;5013524;28;20467;-62
2021/11/24 06:28:48;;;;;;;2.33;1.77;;;0.00;98.00;;;;;;5013763;28;20460;-62
2021/11/24 06:31:17;;;;;;;1.93;1.40;;;0.00;98.00;;;;;;5013542;28;20482;-62
2021/11/24 06:33:44;;;;;;;1.40;1.40;;;0.00;98.00;;;;;;5013192;28;20513;-62
2021/11/24 06:36:11;;;;;;;1.10;1.00;;;0.10;98.00;;;;;;5013575;28;20555;-62
2021/11/24 06:38:40;;;;;;;1.70;1.57;;;0.10;98.00;;;;;;5013518;28;20543;-62
2021/11/24 06:41:07;;;;;;;1.10;1.00;;;0.20;98.00;;;;;;5013292;28;20534;-62
2021/11/24 06:43:34;;;;;;;1.23;1.17;;;0.20;98.00;;;;;;5013339;28;20456;-63
2021/11/24 06:46:01;;;;;;;1.30;1.30;;;0.30;98.00;;;;;;5013241;28;20940;-62
2021/11/24 06:48:28;;;;;;;1.10;0.97;;;0.40;98.00;;;;;;5013238;28;20461;-62
2021/11/24 06:50:56;;;;;;;1.90;1.80;;;0.30;98.00;;;;;;5013000;28;20550;-62
2021/11/24 06:53:23;;;;;;;1.10;0.90;;;0.40;98.00;;;;;;5012088;28;20528;-62
2021/11/24 06:55:52;;;;;;;5.43;1.33;;;0.50;98.00;;;;;;5013035;28;20473;-63
2021/11/24 06:58:19;;;;;;;1.77;1.35;;;0.60;98.00;;;;;;5012581;28;20878;-62
2021/11/24 07:00:46;;;;;;;1.33;1.23;;;0.60;98.00;;;;;;5012313;28;20218;-62
2021/11/24 07:03:14;;;;;;;1.20;1.00;;;0.60;98.00;;;;;;5011834;28;20516;-63
2021/11/24 07:05:41;;;;;;;1.67;1.20;;;0.70;98.00;;;;;;5012887;28;20552;-62
2021/11/24 07:08:08;;;;;;;1.20;1.10;;;0.80;98.00;;;;;;5012210;28;20453;-62
2021/11/24 07:10:35;;;;;;;1.17;1.10;;;0.90;98.00;;;;;;5012126;28;20883;-62
2021/11/24 07:13:04;;;;;;;1.37;1.20;;;0.90;98.00;;;;;;5012194;28;20461;-62
2021/11/24 07:15:33;;;;;;;1.17;1.03;;;0.80;98.00;;;;;;5012848;28;20473;-62
2021/11/24 07:18:00;;;;;;;1.10;1.00;;;0.80;98.00;;;;;;5012827;28;20543;-62
2021/11/24 07:20:28;;;;;;;1.37;1.33;;;0.90;98.00;;;;;;5012978;28;20465;-62
2021/11/24 07:22:55;;;;;;;3.43;2.57;;;1.00;98.00;;;;;;5012971;28;20452;-62
2021/11/24 07:25:22;;;;;;;1.20;1.00;;;1.00;98.00;;;;;;5012631;28;20561;-62
2021/11/24 07:27:50;;;;;;;2.07;1.93;;;1.00;98.00;;;;;;5012858;28;20450;-62
2021/11/24 07:30:19;;;;;;;1.30;1.20;;;1.00;98.00;;;;;;5012624;28;20979;-62
2021/11/24 07:32:47;;;;;;;1.10;1.00;;;1.10;98.00;;;;;;5012638;28;20466;-62
2021/11/24 07:35:14;;;;;;;1.83;1.50;;;1.20;98.00;;;;;;5012197;28;20971;-62
2021/11/24 07:37:41;;;;;;;1.97;1.70;;;1.20;98.00;;;;;;5012435;28;20490;-62
2021/11/24 07:40:11;;;;;;;1.20;1.00;;;1.30;98.00;;;;;;5012441;28;20512;-62
2021/11/24 07:42:38;;;;;;;1.33;1.33;;;1.40;98.00;;;;;;5012657;28;20562;-62
2021/11/24 07:45:07;;;;;;;1.10;1.00;;;1.40;98.00;;;;;;5012213;28;20484;-62
2021/11/24 07:47:36;;;;;;;1.40;1.33;;;1.40;98.00;;;;;;5012194;28;20455;-62
2021/11/24 07:50:04;;;;;;;2.07;1.70;;;1.50;98.00;;;;;;5012219;28;20501;-62
2021/11/24 07:52:31;;;;;;;1.87;1.30;;;1.60;98.00;;;;;;5012139;28;20466;-62
2021/11/24 07:54:58;;;;;;;1.53;1.20;;;1.70;98.00;;;;;;5011886;28;20520;-62
2021/11/24 07:57:25;;;;;;;1.20;1.00;;;1.70;98.00;;;;;;5012311;28;20564;-61
2021/11/24 07:59:52;;;;;;;1.17;1.03;;;1.70;98.00;;;;;;5012206;28;20925;-62
2021/11/24 08:02:19;;;;;;;1.20;1.00;;;1.80;98.00;;;;;;5011837;28;20968;-62
2021/11/24 08:04:48;;;;;;;1.10;1.00;;;1.80;98.00;;;;;;5012057;28;20464;-62
2021/11/24 08:07:15;;;;;;;1.80;1.40;;;1.80;98.00;;;;;;5011990;28;20589;-61
2021/11/24 08:09:42;;;;;;;1.53;1.40;;;1.80;98.00;;;;;;5011754;28;20497;-63
2021/11/24 08:12:12;;;;;;;1.20;1.10;;;1.90;98.00;;;;;;5011786;28;20557;-61
2021/11/24 08:14:39;;;;;;;1.20;1.00;;;1.90;98.00;;;;;;5011918;28;20508;-61
2021/11/24 08:17:07;;;;;;;1.30;1.20;;;1.90;98.00;;;;;;5011940;28;20456;-62
2021/11/24 08:19:34;;;;;;;1.10;1.00;;;2.00;98.00;;;;;;5011758;28;21014;-62
2021/11/24 08:22:03;;;;;;;1.20;1.10;;;2.00;98.00;;;;;;5011925;28;20537;-62
2021/11/24 08:24:30;;;;;;;2.17;1.20;;;2.00;98.00;;;;;;5007977;28;20884;-61
2021/11/24 08:26:59;;;;;;;1.10;1.00;;;2.10;98.00;;;;;;5009368;28;20455;-61
2021/11/24 08:29:26;;;;;;;1.40;1.27;;;2.10;98.00;;;;;;5007991;28;20466;-61
2021/11/24 08:31:53;;;;;;;1.73;1.73;;;2.20;98.00;;;;;;5009397;28;20471;-61
2021/11/24 08:34:20;;;;;;;2.97;1.90;;;2.10;98.00;;;;;;5009138;28;20527;-63
2021/11/24 08:36:48;;;;;;;1.10;1.00;;;2.10;98.00;;;;;;5009195;28;20546;-61
2021/11/24 08:39:17;;;;;;;1.23;1.10;;;2.10;98.00;;;;;;5009171;28;20497;-62
2021/11/24 08:41:44;;;;;;;1.20;1.17;;;2.10;98.00;;;;;;5009012;28;20463;-61
2021/11/24 08:44:13;;;;;;;1.20;1.00;;;2.10;98.00;;;;;;5009265;28;20458;-61
2021/11/24 08:46:40;;;;;;;1.10;1.10;;;2.00;98.00;;;;;;5009118;28;20469;-61
2021/11/24 08:49:07;;;;;;;1.20;1.10;;;2.00;98.00;;;;;;5008905;28;20860;-62
2021/11/24 08:51:36;;;;;;;1.10;1.00;;;2.10;98.00;;;;;;5007986;28;20523;-61
2021/11/24 08:54:06;;;;;;;1.20;1.10;;;2.20;98.00;;;;;;5009093;28;20817;-62
2021/11/24 08:56:35;;;;;;;3.60;2.03;;;2.20;98.00;;;;;;5007931;28;20469;-61
2021/11/24 08:59:04;;;;;;;1.20;1.00;;;2.30;98.00;;;;;;5009036;28;20525;-61
2021/11/24 09:01:31;;;;;;;1.43;1.43;;;2.30;98.00;;;;;;5008826;28;20470;-63
2021/11/24 09:03:59;;;;;;;1.70;1.30;;;2.50;98.00;;;;;;5009033;28;20551;-61
2021/11/24 09:06:26;;;;;;;2.20;1.20;;;2.60;98.00;;;;;;5008640;28;20461;-62
2021/11/24 09:08:55;;;;;;;1.43;1.37;;;2.70;98.00;;;;;;5007775;28;20988;-62
2021/11/24 09:11:22;;;;;;;2.13;1.10;;;2.80;98.00;;;;;;5008790;28;20470;-62
2021/11/24 09:13:50;;;;;;;1.30;1.10;;;2.80;98.00;;;;;;5008742;28;20509;-62
2021/11/24 09:16:18;;;;;;;2.80;1.30;;;2.90;98.00;;;;;;5008759;28;20961;-62
2021/11/24 09:18:45;;;;;;;1.10;0.90;;;3.00;98.00;;;;;;5008881;28;20517;-62
2021/11/24 09:21:12;;;;;;;1.77;1.40;;;3.00;98.00;;;;;;5008687;28;20466;-61
2021/11/24 09:23:40;;;;;;;1.20;1.10;;;3.10;98.00;;;;;;5011234;28;20512;-63
2021/11/24 09:26:17;;;;;;;1.30;1.20;;;3.20;98.00;;;;;;5010875;28;20466;-63
2021/11/24 09:28:45;;;;;;;1.20;1.10;;;3.30;98.00;;;;;;5012325;28;20464;-64
2021/11/24 09:31:14;;;;;;;1.20;1.00;;;3.40;98.00;;;;;;5012232;28;20516;-63
2021/11/24 09:33:42;;;;;;;1.60;1.40;;;3.40;98.00;;;;;;5012514;28;20520;-63
2021/11/24 09:36:17;;;;;;;1.20;1.00;;;3.50;98.00;;;;;;5012180;28;20942;-63
2021/11/24 09:38:44;;;;;;;4.50;1.80;;;3.60;98.00;;;;;;5011920;28;20533;-63
2021/11/24 09:41:13;;;;;;;2.00;1.30;;;3.80;98.00;;;;;;5011006;28;20832;-63
2021/11/24 09:43:44;;;;;;;3.03;1.33;;;3.90;98.00;;;;;;5012221;28;20875;-63
2021/11/24 09:46:16;;;;;;;1.60;1.30;;;3.90;98.00;;;;;;5004093;28;20466;-62
2021/11/24 09:48:44;;;;;;;1.50;1.30;;;3.80;98.00;;;;;;5004097;28;20520;-62
2021/11/24 09:51:12;;;;;;;3.83;1.67;;;3.80;98.00;;;;;;5009520;28;20866;-63
2021/11/24 09:53:40;;;;;;;1.20;1.00;;;4.00;98.00;;;;;;5010746;28;20810;-63
2021/11/24 09:56:07;;;;;;;1.63;1.50;;;4.10;98.00;;;;;;5011469;28;20482;-63
2021/11/24 09:58:34;;;;;;;1.67;1.37;;;4.20;98.00;;;;;;5011704;28;20495;-63
2021/11/24 10:01:02;;;;;;;1.83;1.63;;;4.20;98.00;;;;;;5011871;28;20463;-63
2021/11/24 10:03:32;;;;;;;1.20;1.07;;;4.30;98.00;;;;;;5011531;28;20432;-63
2021/11/24 10:05:59;;;;;;;2.27;1.37;;;4.50;98.00;;;;;;5003683;28;21111;-63
2021/11/24 10:08:31;;;;;;;1.20;1.00;;;4.50;98.00;;;;;;5011591;28;20467;-63
2021/11/24 10:10:59;;;;;;;1.20;1.00;;;4.60;98.00;;;;;;5004197;28;20458;-62
2021/11/24 10:13:27;;;;;;;1.20;1.00;;;4.70;98.00;;;;;;5011442;28;20543;-62
2021/11/24 10:15:56;;;;;;;1.20;1.10;;;4.80;98.00;;;;;;5011706;28;20538;-62
2021/11/24 10:18:26;;;;;;;1.63;1.30;;;4.80;98.00;;;;;;5011397;28;20483;-62
2021/11/24 10:20:57;;;;;;;1.20;1.00;;;4.80;98.00;;;;;;5011235;28;20462;-62
2021/11/24 10:23:32;;;;;;;1.20;1.00;;;4.80;98.00;;;;;;5011195;28;20464;-63
2021/11/24 10:26:18;;;;;;;2.17;2.00;;;4.70;98.00;;;;;;5011030;28;20495;-62
2021/11/24 10:28:54;;;;;;;1.40;1.30;;;4.60;98.00;;;;;;5010007;28;20949;-62
2021/11/24 10:31:31;;;;;;;1.20;1.00;;;4.50;98.00;;;;;;5010933;28;20497;-63
2021/11/24 10:33:59;;;;;;;1.40;1.27;;;4.30;98.00;;;;;;5010877;28;20808;-62
2021/11/24 10:36:29;;;;;;;1.20;1.10;;;4.30;98.00;;;;;;5010827;28;20505;-62
2021/11/24 10:38:57;;;;;;;1.83;1.33;;;4.30;98.00;;;;;;5010775;28;20491;-62
2021/11/24 10:41:30;;;;;;;1.20;1.00;;;4.30;98.00;;;;;;5010902;28;20466;-62
2021/11/24 10:44:00;;;;;;;1.97;1.60;;;4.30;98.00;;;;;;5010712;28;20459;-62
2021/11/24 10:46:27;;;;;;;1.30;1.10;;;4.20;98.00;;;;;;5010839;28;20537;-62
2021/11/24 10:49:04;;;;;;;1.70;1.43;;;4.20;98.00;;;;;;5010806;28;20516;-62
2021/11/24 10:51:36;;;;;;;3.87;1.70;;;4.10;98.00;;;;;;5008782;28;20869;-63
2021/11/24 10:54:14;;;;;;;1.50;1.30;;;4.10;98.00;;;;;;5010943;28;20466;-63
2021/11/24 10:57:06;;;;;;;1.63;1.20;;;4.30;98.00;;;;;;5010167;28;20550;-63
2021/11/24 10:59:36;;;;;;;1.20;1.00;;;4.40;98.00;;;;;;4996171;28;20494;-62
2021/11/24 11:02:25;;;;;;;1.20;1.00;;;4.60;98.00;;;;;;5010457;28;20938;-62
2021/11/24 11:05:22;;;;;;;2.80;1.67;;;4.70;98.00;;;;;;5010428;28;20466;-62
2021/11/24 11:08:03;;;;;;;1.20;1.10;;;4.80;98.00;;;;;;5002963;28;20873;-63
2021/11/24 11:10:32;;;;;;;1.20;1.20;;;4.90;98.00;;;;;;5010243;28;20475;-63
2021/11/24 11:13:02;;;;;;;1.20;1.10;;;5.10;98.00;;;;;;5010225;28;20459;-63
2021/11/24 11:15:35;;;;;;;1.20;1.00;;;5.30;98.00;;;;;;5010321;28;20533;-63
2021/11/24 11:18:13;;;;;;;1.40;1.30;;;5.60;98.00;;;;;;5009167;28;20479;-62
2021/11/24 11:20:43;;;;;;;1.77;1.40;;;5.90;98.00;;;;;;5010253;28;20470;-63
2021/11/24 11:23:17;;;;;;;1.60;1.50;;;6.10;98.00;;;;;;5010349;28;20465;-63
2021/11/24 11:25:47;;;;;;;1.20;1.00;;;6.10;98.00;;;;;;5010078;28;20462;-63
2021/11/24 11:28:15;;;;;;;2.70;1.70;;;6.30;98.00;;;;;;5010419;28;20456;-63
2021/11/24 11:30:46;;;;;;;1.40;1.30;;;6.30;98.00;;;;;;5010408;28;20452;-63
2021/11/24 11:33:15;;;;;;;1.77;1.27;;;6.40;98.00;;;;;;5010264;28;20460;-63
2021/11/24 11:35:44;;;;;;;1.20;1.10;;;6.60;98.00;;;;;;5010091;28;20472;-63
2021/11/24 11:38:12;;;;;;;1.30;1.20;;;6.80;98.00;;;;;;5010434;28;20477;-62
2021/11/24 11:40:42;;;;;;;1.57;1.10;;;6.90;98.00;;;;;;5009776;28;20469;-63
2021/11/24 11:43:10;;;;;;;1.90;1.40;;;7.10;98.00;;;;;;5010331;28;20460;-63
2021/11/24 11:45:40;;;;;;;1.57;1.47;;;7.40;98.00;;;;;;5009272;28;20460;-62
2021/11/24 11:48:08;;;;;;;1.20;1.10;;;7.50;98.00;;;;;;5009718;28;20453;-63
2021/11/24 11:50:54;;;;;;;1.40;1.20;;;7.50;98.00;;;;;;5007661;28;20464;-63
2021/11/24 11:53:26;;;;;;;1.93;1.50;;;7.80;98.00;;;;;;5009425;28;20518;-64
2021/11/24 11:56:28;;;;;;;2.03;1.67;;;7.80;98.00;;;;;;5009616;28;20508;-63
2021/11/24 11:59:04;;;;;;;1.30;1.10;;;7.90;98.00;;;;;;4948800;29;20504;-63
2021/11/24 12:01:34;;;;;;;1.83;1.20;;;7.90;98.00;;;;;;4948371;29;20480;-63
2021/11/24 12:04:14;;;;;;;2.33;1.77;;;7.90;98.00;;;;;;4981174;28;20471;-63
2021/11/24 12:06:44;;;;;;;1.70;1.53;;;8.10;98.00;;;;;;5009197;28;20468;-63
2021/11/24 12:09:23;;;;;;;1.50;1.30;;;8.30;98.00;;;;;;5009570;28;20530;-63
2021/11/24 12:12:25;;;;;;;1.57;1.50;;;8.30;98.00;;;;;;5009830;28;20461;-63
2021/11/24 12:15:10;;;;;;;1.37;1.30;;;8.50;98.00;;;;;;4997058;28;20477;-64
2021/11/24 12:18:01;;;;;;;1.50;1.33;;;8.80;98.00;;;;;;5007941;28;20460;-63
2021/11/24 12:20:44;;;;;;;2.40;1.73;;;8.90;98.00;;;;;;5009263;28;20500;-63
2021/11/24 12:23:17;;;;;;;1.23;1.17;;;9.40;98.00;;;;;;5001180;28;20466;-63
2021/11/24 12:25:47;;;;;;;1.30;1.23;;;9.50;98.00;;;;;;5008726;28;20834;-63
2021/11/24 12:28:20;;;;;;;2.27;2.10;;;9.80;97.80;;;;;;5009053;28;20542;-63
2021/11/24 12:31:12;;;;;;;1.70;1.47;;;10.00;96.70;;;;;;5009353;28;20476;-62
2021/11/24 12:33:48;;;;;;;3.20;2.07;;;10.30;96.50;;;;;;5009148;28;20459;-63
2021/11/24 12:36:20;;;;;;;1.73;1.63;;;11.10;98.00;;;;;;5009324;28;20462;-64
2021/11/24 12:38:50;;;;;;;1.87;1.70;;;11.60;93.80;;;;;;5009027;28;20501;-63
2021/11/24 12:41:21;;;;;;;2.17;1.70;;;11.60;91.30;;;;;;5008919;28;20848;-63
2021/11/24 12:43:52;;;;;;;3.03;2.50;;;11.50;90.90;;;;;;5009111;28;20471;-63
2021/11/24 12:46:22;;;;;;;1.63;1.63;;;11.30;90.80;;;;;;5009447;28;20502;-63
2021/11/24 12:48:54;;;;;;;2.17;2.07;;;11.30;92.30;;;;;;5009468;28;20543;-63
2021/11/24 12:51:29;;;;;;;1.50;1.47;;;11.00;91.30;;;;;;5007439;28;20481;-64
2021/11/24 12:53:59;;;;;;;2.47;1.83;;;11.00;91.70;;;;;;5009122;28;20466;-64
2021/11/24 12:56:29;;;;;;;2.80;2.10;;;10.90;91.60;;;;;;5009418;28;20951;-63
2021/11/24 12:59:03;;;;;;;3.20;2.43;;;10.80;92.10;;;;;;5004667;28;20567;-64
2021/11/24 13:01:33;;;;;;;1.97;1.67;;;10.80;92.40;;;;;;5012802;28;20470;-64